createdAt,value
2018-05-13T00:00:40.918Z,18.93
2018-05-13T00:01:40.874Z,18.93
2018-05-13T00:02:40.829Z,18.89
2018-05-13T00:03:40.794Z,18.95
2018-05-13T00:04:40.774Z,18.98
2018-05-13T00:05:40.697Z,19.00
2018-05-13T00:06:40.659Z,19.00
2018-05-13T00:07:40.611Z,18.95
2018-05-13T00:08:40.593Z,18.95
2018-05-13T00:09:40.526Z,18.90
2018-05-13T00:10:40.516Z,18.99
2018-05-13T00:11:40.431Z,18.95
2018-05-13T00:12:40.388Z,19.02
2018-05-13T00:13:40.340Z,18.92
2018-05-13T00:14:40.296Z,18.86
2018-05-13T00:15:40.296Z,18.92
2018-05-13T00:16:40.206Z,18.86
2018-05-13T00:17:40.165Z,18.84
2018-05-13T00:18:40.124Z,18.73
2018-05-13T00:19:40.076Z,18.73
2018-05-13T00:20:40.076Z,18.60
2018-05-13T00:21:39.985Z,18.62
2018-05-13T00:22:39.952Z,18.66
2018-05-13T00:23:39.896Z,18.60
2018-05-13T00:24:39.857Z,18.60
2018-05-13T00:25:39.851Z,18.58
2018-05-13T00:26:39.789Z,18.58
2018-05-13T00:27:39.720Z,18.62
2018-05-13T00:28:39.679Z,18.52
2018-05-13T00:29:39.631Z,18.56
2018-05-13T00:30:39.620Z,18.62
2018-05-13T00:31:39.544Z,18.62
2018-05-13T00:32:39.505Z,18.62
2018-05-13T00:33:39.489Z,18.59
2018-05-13T00:34:39.414Z,18.62
2018-05-13T00:35:39.366Z,18.65
2018-05-13T00:36:39.326Z,18.63
2018-05-13T00:37:39.315Z,18.63
2018-05-13T00:38:39.231Z,18.60
2018-05-13T00:39:39.191Z,18.59
2018-05-13T00:40:39.142Z,18.65
2018-05-13T00:41:39.095Z,18.62
2018-05-13T00:42:39.088Z,18.59
2018-05-13T00:43:39.012Z,18.58
2018-05-13T00:44:38.969Z,18.52
2018-05-13T00:45:38.955Z,18.59
2018-05-13T00:46:38.877Z,18.56
2018-05-13T00:47:38.834Z,18.65
2018-05-13T00:48:38.793Z,18.59
2018-05-13T00:49:38.772Z,18.58
2018-05-13T00:50:38.778Z,18.62
2018-05-13T00:51:38.656Z,18.55
2018-05-13T00:52:38.613Z,18.49
2018-05-13T00:53:38.612Z,18.50
2018-05-13T00:54:38.524Z,18.49
2018-05-13T00:55:38.481Z,18.53
2018-05-13T00:56:38.438Z,18.52
2018-05-13T00:57:38.389Z,18.45
2018-05-13T00:58:38.387Z,18.55
2018-05-13T00:59:38.300Z,18.50
2018-05-13T01:00:38.257Z,18.49
2018-05-13T01:01:38.210Z,18.53
2018-05-13T01:02:38.169Z,18.45
2018-05-13T01:03:38.153Z,18.53
2018-05-13T01:04:38.079Z,18.47
2018-05-13T01:05:38.061Z,18.49
2018-05-13T01:06:37.988Z,18.52
2018-05-13T01:07:37.974Z,18.55
2018-05-13T01:08:37.900Z,18.55
2018-05-13T01:09:37.853Z,18.73
2018-05-13T01:10:37.841Z,18.70
2018-05-13T01:11:37.765Z,18.59
2018-05-13T01:12:37.726Z,18.59
2018-05-13T01:13:37.677Z,18.50
2018-05-13T01:14:37.631Z,18.45
2018-05-13T01:15:37.624Z,18.47
2018-05-13T01:16:37.542Z,18.41
2018-05-13T01:17:37.496Z,18.41
2018-05-13T01:18:37.453Z,18.41
2018-05-13T01:19:37.418Z,18.47
2018-05-13T01:20:37.399Z,18.50
2018-05-13T01:21:37.318Z,18.47
2018-05-13T01:22:37.277Z,18.40
2018-05-13T01:23:37.251Z,18.38
2018-05-13T01:24:37.184Z,18.33
2018-05-13T01:25:37.172Z,18.37
2018-05-13T01:26:37.098Z,18.28
2018-05-13T01:27:37.083Z,18.37
2018-05-13T01:28:37.008Z,18.34
2018-05-13T01:29:36.974Z,18.29
2018-05-13T01:30:36.917Z,18.43
2018-05-13T01:31:36.873Z,18.50
2018-05-13T01:32:36.868Z,18.43
2018-05-13T01:33:36.793Z,18.38
2018-05-13T01:34:36.739Z,18.37
2018-05-13T01:35:36.699Z,18.35
2018-05-13T01:36:36.651Z,18.40
2018-05-13T01:37:36.635Z,18.41
2018-05-13T01:38:36.563Z,18.40
2018-05-13T01:39:36.527Z,18.25
2018-05-13T01:40:36.477Z,18.35
2018-05-13T01:41:36.433Z,18.47
2018-05-13T01:42:36.424Z,18.43
2018-05-13T01:43:36.343Z,18.55
2018-05-13T01:44:36.293Z,18.40
2018-05-13T01:45:36.252Z,18.47
2018-05-13T01:46:36.204Z,18.44
2018-05-13T01:47:36.213Z,18.43
2018-05-13T01:48:36.116Z,18.38
2018-05-13T01:49:36.076Z,18.53
2018-05-13T01:50:36.025Z,18.44
2018-05-13T01:51:35.983Z,18.43
2018-05-13T01:52:35.978Z,18.37
2018-05-13T01:53:35.898Z,18.35
2018-05-13T01:54:35.848Z,18.41
2018-05-13T01:55:35.805Z,18.34
2018-05-13T01:56:35.762Z,18.43
2018-05-13T01:57:35.764Z,18.41
2018-05-13T01:58:35.668Z,18.45
2018-05-13T01:59:35.658Z,18.37
2018-05-13T02:00:35.583Z,18.38
2018-05-13T02:01:35.538Z,18.47
2018-05-13T02:02:35.492Z,18.40
2018-05-13T02:03:35.480Z,18.40
2018-05-13T02:04:35.444Z,18.40
2018-05-13T02:05:35.358Z,18.31
2018-05-13T02:06:35.313Z,18.13
2018-05-13T02:07:35.271Z,18.15
2018-05-13T02:08:35.234Z,18.07
2018-05-13T02:09:35.219Z,17.87
2018-05-13T02:10:35.140Z,17.76
2018-05-13T02:11:35.100Z,17.68
2018-05-13T02:12:35.048Z,17.64
2018-05-13T02:13:35.010Z,17.57
2018-05-13T02:14:35.014Z,17.57
2018-05-13T02:15:34.917Z,17.42
2018-05-13T02:16:34.870Z,17.54
2018-05-13T02:17:34.833Z,17.49
2018-05-13T02:18:34.785Z,17.44
2018-05-13T02:19:34.783Z,17.45
2018-05-13T02:20:34.696Z,17.45
2018-05-13T02:21:34.651Z,17.42
2018-05-13T02:22:34.633Z,17.39
2018-05-13T02:23:34.561Z,17.42
2018-05-13T02:24:34.521Z,17.38
2018-05-13T02:25:34.472Z,17.33
2018-05-13T02:26:34.431Z,17.46
2018-05-13T02:27:34.417Z,17.39
2018-05-13T02:28:34.369Z,17.42
2018-05-13T02:29:34.293Z,17.39
2018-05-13T02:30:35.313Z,17.39
2018-05-13T02:31:34.204Z,17.30
2018-05-13T02:32:34.161Z,17.24
2018-05-13T02:33:34.175Z,17.20
2018-05-13T02:34:34.078Z,17.12
2018-05-13T02:35:34.028Z,17.14
2018-05-13T02:36:33.983Z,17.12
2018-05-13T02:37:33.935Z,16.96
2018-05-13T02:38:33.935Z,17.06
2018-05-13T02:39:33.851Z,17.04
2018-05-13T02:40:33.804Z,17.02
2018-05-13T02:41:33.761Z,17.02
2018-05-13T02:42:33.714Z,16.81
2018-05-13T02:43:33.711Z,16.89
2018-05-13T02:44:33.668Z,16.84
2018-05-13T02:45:33.579Z,16.84
2018-05-13T02:46:33.545Z,16.87
2018-05-13T02:47:33.502Z,16.79
2018-05-13T02:48:33.448Z,16.81
2018-05-13T02:49:33.444Z,16.69
2018-05-13T02:50:33.366Z,16.56
2018-05-13T02:51:33.311Z,16.60
2018-05-13T02:52:33.271Z,16.58
2018-05-13T02:53:33.228Z,16.56
2018-05-13T02:54:33.224Z,16.49
2018-05-13T02:55:33.133Z,16.38
2018-05-13T02:56:33.093Z,16.39
2018-05-13T02:57:33.043Z,16.29
2018-05-13T02:58:32.996Z,16.35
2018-05-13T02:59:33.095Z,16.26
2018-05-13T03:00:32.906Z,16.21
2018-05-13T03:01:32.868Z,16.08
2018-05-13T03:02:32.818Z,15.94
2018-05-13T03:03:32.776Z,15.95
2018-05-13T03:04:32.766Z,15.95
2018-05-13T03:05:32.688Z,15.94
2018-05-13T03:06:32.643Z,15.86
2018-05-13T03:07:32.598Z,15.82
2018-05-13T03:08:32.551Z,15.82
2018-05-13T03:09:32.551Z,15.77
2018-05-13T03:10:32.458Z,15.80
2018-05-13T03:11:32.419Z,15.76
2018-05-13T03:12:32.372Z,15.82
2018-05-13T03:13:32.327Z,15.77
2018-05-13T03:14:32.319Z,15.76
2018-05-13T03:15:32.237Z,15.76
2018-05-13T03:16:32.188Z,15.70
2018-05-13T03:17:32.145Z,15.65
2018-05-13T03:18:32.098Z,15.58
2018-05-13T03:19:32.085Z,15.51
2018-05-13T03:20:32.040Z,15.54
2018-05-13T03:21:31.967Z,15.58
2018-05-13T03:22:31.917Z,15.58
2018-05-13T03:23:31.886Z,15.47
2018-05-13T03:24:31.830Z,15.52
2018-05-13T03:25:31.817Z,15.49
2018-05-13T03:26:31.739Z,15.37
2018-05-13T03:27:31.693Z,15.37
2018-05-13T03:28:31.651Z,15.42
2018-05-13T03:29:31.600Z,15.44
2018-05-13T03:30:31.595Z,15.42
2018-05-13T03:31:31.511Z,15.40
2018-05-13T03:32:31.502Z,15.39
2018-05-13T03:33:31.428Z,15.46
2018-05-13T03:34:31.403Z,15.43
2018-05-13T03:35:31.326Z,15.52
2018-05-13T03:36:31.292Z,15.44
2018-05-13T03:37:31.236Z,15.51
2018-05-13T03:38:31.208Z,15.49
2018-05-13T03:39:31.185Z,15.47
2018-05-13T03:40:31.118Z,15.44
2018-05-13T03:41:31.054Z,15.40
2018-05-13T03:42:31.043Z,15.40
2018-05-13T03:43:30.963Z,15.25
2018-05-13T03:44:30.953Z,15.29
2018-05-13T03:45:30.876Z,15.31
2018-05-13T03:46:30.872Z,15.22
2018-05-13T03:47:30.784Z,15.18
2018-05-13T03:48:30.750Z,15.10
2018-05-13T03:49:30.726Z,15.15
2018-05-13T03:50:30.647Z,15.14
2018-05-13T03:51:30.602Z,15.10
2018-05-13T03:52:30.599Z,15.15
2018-05-13T03:53:30.505Z,15.21
2018-05-13T03:54:30.463Z,15.22
2018-05-13T03:55:30.423Z,15.28
2018-05-13T03:56:30.375Z,15.27
2018-05-13T03:57:30.355Z,15.37
2018-05-13T03:58:30.314Z,15.37
2018-05-13T03:59:30.239Z,15.35
2018-05-13T04:00:30.194Z,15.36
2018-05-13T04:01:30.154Z,15.21
2018-05-13T04:02:30.099Z,15.27
2018-05-13T04:03:30.096Z,15.18
2018-05-13T04:04:30.013Z,15.25
2018-05-13T04:05:29.964Z,15.14
2018-05-13T04:06:29.916Z,15.17
2018-05-13T04:07:29.968Z,15.15
2018-05-13T04:08:29.876Z,15.19
2018-05-13T04:09:29.782Z,15.17
2018-05-13T04:10:29.733Z,15.18
2018-05-13T04:11:29.758Z,15.15
2018-05-13T04:12:29.644Z,15.10
2018-05-13T04:13:29.621Z,15.11
2018-05-13T04:14:29.550Z,15.31
2018-05-13T04:15:29.536Z,15.21
2018-05-13T04:16:29.456Z,15.33
2018-05-13T04:17:29.413Z,15.36
2018-05-13T04:18:29.377Z,15.18
2018-05-13T04:19:29.323Z,15.09
2018-05-13T04:20:29.305Z,15.14
2018-05-13T04:21:29.235Z,15.07
2018-05-13T04:22:29.180Z,15.19
2018-05-13T04:23:29.149Z,15.00
2018-05-13T04:24:29.090Z,15.04
2018-05-13T04:25:29.079Z,15.06
2018-05-13T04:26:28.999Z,15.00
2018-05-13T04:27:28.965Z,15.09
2018-05-13T04:28:28.909Z,15.14
2018-05-13T04:29:28.875Z,15.10
2018-05-13T04:30:28.851Z,15.18
2018-05-13T04:31:28.772Z,15.14
2018-05-13T04:32:28.733Z,15.07
2018-05-13T04:33:28.723Z,15.11
2018-05-13T04:34:28.637Z,15.09
2018-05-13T04:35:28.588Z,15.21
2018-05-13T04:36:28.541Z,15.25
2018-05-13T04:37:28.497Z,15.31
2018-05-13T04:38:28.485Z,15.24
2018-05-13T04:39:28.405Z,15.17
2018-05-13T04:40:28.357Z,15.15
2018-05-13T04:41:28.311Z,15.24
2018-05-13T04:42:28.309Z,15.24
2018-05-13T04:43:28.224Z,15.33
2018-05-13T04:44:28.178Z,15.39
2018-05-13T04:45:28.133Z,15.37
2018-05-13T04:46:28.093Z,15.39
2018-05-13T04:47:28.078Z,15.51
2018-05-13T04:48:28.000Z,15.51
2018-05-13T04:49:27.957Z,15.57
2018-05-13T04:50:27.903Z,15.58
2018-05-13T04:51:27.860Z,15.57
2018-05-13T04:52:27.843Z,15.54
2018-05-13T04:53:27.765Z,15.55
2018-05-13T04:54:27.717Z,15.55
2018-05-13T04:55:27.720Z,15.57
2018-05-13T04:56:27.625Z,15.58
2018-05-13T04:57:27.580Z,15.59
2018-05-13T04:58:27.534Z,15.57
2018-05-13T04:59:27.520Z,15.67
2018-05-13T05:00:27.442Z,15.72
2018-05-13T05:01:27.430Z,15.64
2018-05-13T05:02:27.355Z,15.68
2018-05-13T05:03:27.310Z,15.72
2018-05-13T05:04:27.293Z,15.75
2018-05-13T05:05:27.220Z,15.82
2018-05-13T05:06:27.217Z,15.84
2018-05-13T05:07:27.123Z,15.84
2018-05-13T05:08:27.085Z,15.88
2018-05-13T05:09:27.031Z,15.90
2018-05-13T05:10:26.997Z,15.92
2018-05-13T05:11:26.972Z,15.94
2018-05-13T05:12:26.935Z,16.00
2018-05-13T05:13:26.850Z,16.00
2018-05-13T05:14:26.811Z,16.05
2018-05-13T05:15:26.794Z,16.01
2018-05-13T05:16:26.718Z,16.05
2018-05-13T05:17:26.700Z,16.10
2018-05-13T05:18:26.664Z,16.21
2018-05-13T05:19:26.578Z,16.15
2018-05-13T05:20:26.577Z,16.12
2018-05-13T05:21:26.488Z,16.20
2018-05-13T05:22:26.447Z,16.20
2018-05-13T05:23:26.397Z,16.23
2018-05-13T05:24:26.347Z,16.24
2018-05-13T05:25:26.346Z,16.26
2018-05-13T05:26:26.259Z,16.31
2018-05-13T05:27:26.220Z,16.23
2018-05-13T05:28:26.169Z,16.28
2018-05-13T05:29:26.156Z,16.23
2018-05-13T05:30:26.076Z,16.16
2018-05-13T05:31:26.035Z,16.28
2018-05-13T05:32:25.991Z,16.23
2018-05-13T05:33:25.941Z,16.21
2018-05-13T05:34:25.931Z,16.23
2018-05-13T05:35:25.850Z,16.26
2018-05-13T05:36:25.807Z,16.35
2018-05-13T05:37:25.763Z,16.29
2018-05-13T05:38:25.731Z,16.39
2018-05-13T05:39:25.719Z,16.35
2018-05-13T05:40:25.629Z,16.36
2018-05-13T05:41:25.580Z,16.38
2018-05-13T05:42:25.535Z,16.42
2018-05-13T05:43:25.495Z,16.41
2018-05-13T05:44:25.504Z,16.43
2018-05-13T05:45:25.399Z,16.49
2018-05-13T05:46:25.360Z,16.42
2018-05-13T05:47:25.309Z,16.41
2018-05-13T05:48:25.272Z,16.54
2018-05-13T05:49:25.262Z,16.50
2018-05-13T05:50:25.174Z,16.57
2018-05-13T05:51:25.132Z,16.57
2018-05-13T05:52:25.088Z,16.57
2018-05-13T05:53:25.035Z,16.53
2018-05-13T05:54:25.025Z,16.56
2018-05-13T05:55:24.986Z,16.54
2018-05-13T05:56:24.902Z,16.58
2018-05-13T05:57:24.862Z,16.54
2018-05-13T05:58:24.812Z,16.65
2018-05-13T05:59:24.768Z,16.60
2018-05-13T06:00:24.764Z,16.64
2018-05-13T06:01:24.676Z,16.69
2018-05-13T06:02:24.633Z,16.60
2018-05-13T06:03:24.586Z,16.69
2018-05-13T06:04:24.547Z,16.72
2018-05-13T06:05:24.541Z,16.76
2018-05-13T06:06:24.454Z,16.79
2018-05-13T06:07:24.413Z,16.86
2018-05-13T06:08:24.363Z,16.87
2018-05-13T06:09:24.317Z,16.81
2018-05-13T06:10:24.312Z,16.91
2018-05-13T06:11:24.233Z,16.87
2018-05-13T06:12:24.184Z,16.99
2018-05-13T06:13:24.140Z,16.99
2018-05-13T06:14:24.099Z,17.04
2018-05-13T06:15:24.085Z,17.05
2018-05-13T06:16:24.005Z,16.94
2018-05-13T06:17:24.005Z,17.05
2018-05-13T06:18:23.915Z,17.02
2018-05-13T06:19:23.883Z,17.08
2018-05-13T06:20:23.829Z,17.05
2018-05-13T06:21:23.781Z,17.12
2018-05-13T06:22:23.780Z,17.15
2018-05-13T06:23:23.701Z,17.14
2018-05-13T06:24:23.648Z,17.16
2018-05-13T06:25:23.604Z,17.20
2018-05-13T06:26:23.557Z,17.20
2018-05-13T06:27:23.572Z,17.15
2018-05-13T06:28:23.477Z,17.16
2018-05-13T06:29:23.425Z,17.27
2018-05-13T06:30:23.380Z,17.27
2018-05-13T06:31:23.339Z,17.29
2018-05-13T06:32:23.332Z,17.29
2018-05-13T06:33:23.249Z,17.26
2018-05-13T06:34:23.205Z,17.29
2018-05-13T06:35:23.159Z,17.29
2018-05-13T06:36:23.156Z,17.34
2018-05-13T06:37:23.073Z,17.23
2018-05-13T06:38:23.032Z,17.29
2018-05-13T06:39:22.990Z,17.31
2018-05-13T06:40:22.936Z,17.30
2018-05-13T06:41:22.923Z,17.41
2018-05-13T06:42:22.846Z,17.39
2018-05-13T06:43:22.833Z,17.38
2018-05-13T06:44:22.759Z,17.38
2018-05-13T06:45:22.737Z,17.45
2018-05-13T06:46:22.710Z,17.52
2018-05-13T06:47:22.624Z,17.60
2018-05-13T06:48:22.582Z,17.67
2018-05-13T06:49:22.538Z,17.72
2018-05-13T06:50:22.493Z,17.89
2018-05-13T06:51:22.682Z,17.94
2018-05-13T06:52:22.405Z,18.05
2018-05-13T06:53:22.364Z,18.20
2018-05-13T06:54:22.315Z,18.28
2018-05-13T06:55:22.293Z,18.34
2018-05-13T06:56:22.266Z,18.45
2018-05-13T06:57:22.277Z,18.50
2018-05-13T06:58:22.147Z,18.56
2018-05-13T06:59:22.104Z,18.70
2018-05-13T07:00:22.087Z,18.63
2018-05-13T07:01:22.016Z,18.77
2018-05-13T07:02:21.962Z,18.74
2018-05-13T07:03:21.924Z,18.86
2018-05-13T07:04:21.928Z,18.84
2018-05-13T07:05:21.835Z,18.92
2018-05-13T07:06:21.790Z,19.02
2018-05-13T07:07:21.752Z,19.11
2018-05-13T07:08:21.706Z,19.14
2018-05-13T07:09:21.694Z,19.26
2018-05-13T07:10:21.629Z,19.27
2018-05-13T07:11:21.573Z,19.33
2018-05-13T07:12:21.531Z,19.55
2018-05-13T07:13:21.482Z,19.58
2018-05-13T07:14:21.483Z,19.73
2018-05-13T07:15:21.404Z,19.73
2018-05-13T07:16:21.376Z,19.71
2018-05-13T07:17:21.318Z,19.88
2018-05-13T07:18:21.289Z,19.94
2018-05-13T07:19:21.272Z,19.99
2018-05-13T07:20:21.193Z,20.00
2018-05-13T07:21:21.141Z,20.09
2018-05-13T07:22:21.101Z,20.10
2018-05-13T07:23:21.056Z,20.07
2018-05-13T07:24:21.052Z,20.14
2018-05-13T07:25:21.014Z,20.10
2018-05-13T07:26:20.931Z,20.07
2018-05-13T07:27:20.883Z,20.19
2018-05-13T07:28:20.847Z,20.22
2018-05-13T07:29:20.798Z,20.26
2018-05-13T07:30:20.792Z,20.24
2018-05-13T07:31:20.714Z,20.36
2018-05-13T07:32:20.679Z,20.36
2018-05-13T07:33:20.626Z,20.47
2018-05-13T07:34:20.618Z,20.62
2018-05-13T07:35:20.542Z,20.60
2018-05-13T07:36:20.545Z,20.74
2018-05-13T07:37:20.462Z,20.88
2018-05-13T07:38:20.462Z,20.88
2018-05-13T07:39:20.377Z,20.99
2018-05-13T07:40:20.338Z,21.07
2018-05-13T07:41:20.298Z,21.14
2018-05-13T07:42:20.250Z,21.20
2018-05-13T07:43:20.278Z,21.22
2018-05-13T07:44:20.175Z,21.27
2018-05-13T07:45:20.134Z,21.30
2018-05-13T07:46:20.088Z,21.39
2018-05-13T07:47:20.041Z,21.40
2018-05-13T07:48:20.042Z,21.39
2018-05-13T07:49:19.976Z,21.57
2018-05-13T07:50:19.912Z,21.66
2018-05-13T07:51:19.871Z,21.75
2018-05-13T07:52:19.828Z,21.77
2018-05-13T07:53:19.829Z,21.88
2018-05-13T07:54:19.747Z,21.82
2018-05-13T07:55:19.737Z,21.95
2018-05-13T07:56:19.661Z,21.93
2018-05-13T07:57:19.623Z,22.11
2018-05-13T07:58:19.609Z,21.99
2018-05-13T07:59:19.538Z,22.04
2018-05-13T08:00:19.501Z,22.13
2018-05-13T08:01:19.458Z,22.25
2018-05-13T08:02:19.483Z,22.30
2018-05-13T08:03:19.385Z,22.44
2018-05-13T08:04:19.331Z,22.55
2018-05-13T08:05:19.294Z,22.59
2018-05-13T08:06:19.272Z,22.75
2018-05-13T08:07:19.247Z,22.87
2018-05-13T08:08:19.171Z,23.06
2018-05-13T08:09:19.130Z,23.10
2018-05-13T08:10:19.088Z,23.17
2018-05-13T08:11:19.089Z,23.34
2018-05-13T08:12:19.003Z,23.40
2018-05-13T08:13:18.962Z,23.56
2018-05-13T08:14:18.923Z,23.77
2018-05-13T08:15:18.884Z,23.91
2018-05-13T08:16:18.876Z,24.16
2018-05-13T08:17:18.797Z,24.43
2018-05-13T08:18:18.759Z,24.63
2018-05-13T08:19:18.717Z,24.95
2018-05-13T08:20:18.797Z,25.14
2018-05-13T08:21:18.681Z,25.38
2018-05-13T08:22:18.598Z,25.51
2018-05-13T08:23:18.559Z,25.66
2018-05-13T08:24:18.523Z,25.91
2018-05-13T08:25:18.480Z,26.10
2018-05-13T08:26:18.473Z,26.25
2018-05-13T08:27:18.404Z,26.38
2018-05-13T08:28:18.366Z,26.38
2018-05-13T08:29:18.323Z,26.09
2018-05-13T08:30:18.322Z,25.80
2018-05-13T08:31:18.240Z,25.85
2018-05-13T08:32:18.204Z,25.91
2018-05-13T08:33:18.164Z,25.95
2018-05-13T08:34:18.157Z,26.22
2018-05-13T08:35:18.098Z,26.56
2018-05-13T08:36:18.047Z,26.77
2018-05-13T08:37:18.015Z,27.05
2018-05-13T08:38:17.966Z,26.88
2018-05-13T08:39:17.964Z,26.31
2018-05-13T08:40:17.894Z,26.18
2018-05-13T08:41:17.865Z,25.32
2018-05-13T08:42:17.848Z,25.06
2018-05-13T08:43:17.774Z,24.86
2018-05-13T08:44:17.777Z,24.43
2018-05-13T08:45:17.697Z,24.30
2018-05-13T08:46:17.660Z,24.18
2018-05-13T08:47:17.620Z,24.14
2018-05-13T08:48:17.578Z,24.14
2018-05-13T08:49:17.578Z,24.24
2018-05-13T08:50:17.543Z,24.18
2018-05-13T08:51:17.465Z,23.99
2018-05-13T08:52:17.427Z,23.98
2018-05-13T08:53:17.396Z,24.20
2018-05-13T08:54:17.347Z,24.43
2018-05-13T08:55:17.340Z,24.18
2018-05-13T08:56:17.270Z,24.06
2018-05-13T08:57:17.235Z,23.99
2018-05-13T08:58:17.195Z,23.92
2018-05-13T08:59:17.151Z,24.11
2018-05-13T09:00:17.152Z,24.20
2018-05-13T09:01:17.073Z,24.36
2018-05-13T09:02:17.070Z,24.60
2018-05-13T09:03:16.996Z,24.73
2018-05-13T09:04:16.964Z,24.63
2018-05-13T09:05:16.918Z,24.53
2018-05-13T09:06:16.928Z,24.61
2018-05-13T09:07:16.842Z,24.68
2018-05-13T09:08:16.806Z,25.06
2018-05-13T09:09:16.762Z,25.25
2018-05-13T09:10:16.725Z,25.41
2018-05-13T09:11:16.721Z,25.41
2018-05-13T09:12:16.686Z,25.51
2018-05-13T09:13:16.608Z,25.83
2018-05-13T09:14:16.589Z,26.10
2018-05-13T09:15:16.531Z,26.26
2018-05-13T09:16:16.491Z,26.44
2018-05-13T09:17:16.496Z,26.53
2018-05-13T09:18:16.454Z,26.44
2018-05-13T09:19:16.377Z,26.62
2018-05-13T09:20:16.340Z,26.77
2018-05-13T09:21:16.302Z,27.02
2018-05-13T09:22:16.260Z,27.17
2018-05-13T09:23:16.264Z,27.20
2018-05-13T09:24:16.189Z,27.37
2018-05-13T09:25:16.144Z,27.39
2018-05-13T09:26:16.126Z,27.45
2018-05-13T09:27:16.069Z,27.64
2018-05-13T09:28:16.067Z,27.68
2018-05-13T09:29:15.995Z,28.00
2018-05-13T09:30:15.961Z,28.07
2018-05-13T09:31:15.926Z,28.25
2018-05-13T09:32:15.915Z,28.32
2018-05-13T09:33:15.848Z,28.20
2018-05-13T09:34:15.804Z,28.17
2018-05-13T09:35:15.800Z,28.04
2018-05-13T09:36:15.734Z,27.70
2018-05-13T09:37:15.693Z,27.49
2018-05-13T09:38:15.692Z,27.48
2018-05-13T09:39:15.625Z,27.64
2018-05-13T09:40:15.586Z,27.74
2018-05-13T09:41:15.587Z,28.00
2018-05-13T09:42:15.514Z,28.29
2018-05-13T09:43:15.476Z,28.42
2018-05-13T09:44:15.435Z,28.33
2018-05-13T09:45:15.405Z,28.14
2018-05-13T09:46:15.391Z,28.12
2018-05-13T09:47:15.322Z,28.22
2018-05-13T09:48:15.284Z,28.25
2018-05-13T09:49:15.288Z,28.30
2018-05-13T09:50:15.220Z,28.38
2018-05-13T09:51:15.238Z,28.54
2018-05-13T09:52:15.160Z,28.56
2018-05-13T09:53:15.104Z,28.69
2018-05-13T09:54:15.099Z,28.59
2018-05-13T09:55:15.061Z,28.69
2018-05-13T09:56:14.994Z,28.74
2018-05-13T09:57:14.952Z,28.75
2018-05-13T09:58:14.928Z,28.56
2018-05-13T09:59:14.892Z,28.39
2018-05-13T10:00:14.883Z,28.29
2018-05-13T10:01:14.841Z,28.20
2018-05-13T10:02:14.788Z,28.12
2018-05-13T10:03:14.733Z,28.08
2018-05-13T10:04:14.727Z,28.12
2018-05-13T10:05:14.663Z,28.17
2018-05-13T10:06:14.651Z,28.25
2018-05-13T10:07:14.590Z,28.38
2018-05-13T10:08:14.586Z,28.33
2018-05-13T10:09:14.516Z,28.35
2018-05-13T10:10:14.473Z,28.32
2018-05-13T10:11:14.441Z,28.39
2018-05-13T10:12:14.402Z,28.57
2018-05-13T10:13:14.403Z,28.85
2018-05-13T10:14:14.344Z,29.12
2018-05-13T10:15:14.290Z,28.79
2018-05-13T10:16:14.255Z,27.92
2018-05-13T10:17:14.222Z,27.68
2018-05-13T10:18:14.224Z,27.30
2018-05-13T10:19:14.145Z,27.08
2018-05-13T10:20:14.108Z,26.88
2018-05-13T10:21:14.074Z,26.65
2018-05-13T10:22:14.046Z,26.40
2018-05-13T10:23:14.040Z,26.18
2018-05-13T10:24:13.964Z,26.25
2018-05-13T10:25:13.927Z,26.66
2018-05-13T10:26:13.894Z,27.02
2018-05-13T10:27:13.942Z,27.37
2018-05-13T10:28:13.850Z,27.63
2018-05-13T10:29:13.812Z,28.00
2018-05-13T10:30:13.741Z,28.30
2018-05-13T10:31:13.739Z,28.47
2018-05-13T10:32:13.680Z,29.02
2018-05-13T10:33:13.635Z,29.24
2018-05-13T10:34:13.592Z,29.50
2018-05-13T10:35:13.593Z,29.79
2018-05-13T10:36:13.521Z,29.93
2018-05-13T10:37:13.487Z,30.00
2018-05-13T10:38:13.444Z,30.03
2018-05-13T10:39:13.454Z,29.81
2018-05-13T10:40:13.382Z,29.53
2018-05-13T10:41:13.346Z,29.49
2018-05-13T10:42:13.300Z,29.42
2018-05-13T10:43:13.266Z,29.31
2018-05-13T10:44:13.264Z,29.20
2018-05-13T10:45:13.194Z,29.02
2018-05-13T10:46:13.161Z,28.97
2018-05-13T10:47:13.161Z,28.60
2018-05-13T10:48:13.087Z,28.08
2018-05-13T10:49:13.048Z,27.51
2018-05-13T10:50:13.016Z,27.22
2018-05-13T10:51:12.985Z,27.03
2018-05-13T10:52:12.986Z,26.70
2018-05-13T10:53:12.904Z,26.05
2018-05-13T10:54:12.874Z,25.83
2018-05-13T10:55:12.839Z,25.90
2018-05-13T10:56:12.829Z,25.91
2018-05-13T10:57:12.799Z,26.06
2018-05-13T10:58:12.723Z,26.28
2018-05-13T10:59:12.704Z,26.45
2018-05-13T11:00:12.651Z,26.63
2018-05-13T11:01:12.647Z,26.59
2018-05-13T11:02:12.574Z,26.88
2018-05-13T11:03:12.568Z,26.81
2018-05-13T11:04:12.503Z,26.48
2018-05-13T11:05:12.469Z,26.38
2018-05-13T11:06:12.434Z,26.56
2018-05-13T11:07:12.392Z,26.02
2018-05-13T11:08:12.388Z,25.88
2018-05-13T11:09:12.313Z,26.06
2018-05-13T11:10:12.306Z,26.28
2018-05-13T11:11:12.273Z,26.38
2018-05-13T11:12:12.205Z,26.68
2018-05-13T11:13:12.201Z,26.70
2018-05-13T11:14:12.133Z,26.21
2018-05-13T11:15:12.097Z,26.40
2018-05-13T11:16:12.093Z,26.45
2018-05-13T11:17:12.035Z,26.74
2018-05-13T11:18:11.994Z,26.58
2018-05-13T11:19:11.948Z,26.68
2018-05-13T11:20:12.025Z,26.90
2018-05-13T11:21:11.907Z,27.02
2018-05-13T11:22:11.846Z,27.21
2018-05-13T11:23:11.796Z,27.32
2018-05-13T11:24:11.773Z,27.70
2018-05-13T11:25:11.721Z,27.87
2018-05-13T11:26:11.723Z,27.95
2018-05-13T11:27:11.652Z,27.90
2018-05-13T11:28:11.615Z,27.82
2018-05-13T11:29:11.607Z,27.90
2018-05-13T11:30:11.537Z,27.65
2018-05-13T11:31:11.536Z,27.98
2018-05-13T11:32:11.470Z,28.19
2018-05-13T11:33:11.429Z,27.93
2018-05-13T11:34:11.394Z,27.95
2018-05-13T11:35:11.402Z,27.95
2018-05-13T11:36:11.324Z,28.07
2018-05-13T11:37:11.278Z,28.15
2018-05-13T11:38:11.253Z,28.22
2018-05-13T11:39:11.217Z,28.26
2018-05-13T11:40:11.223Z,28.29
2018-05-13T11:41:11.181Z,28.29
2018-05-13T11:42:11.102Z,28.29
2018-05-13T11:43:11.058Z,28.20
2018-05-13T11:44:11.027Z,28.20
2018-05-13T11:45:10.992Z,28.20
2018-05-13T11:46:10.985Z,28.37
2018-05-13T11:47:10.914Z,28.63
2018-05-13T11:48:10.878Z,28.35
2018-05-13T11:49:10.957Z,28.07
2018-05-13T11:50:10.807Z,27.78
2018-05-13T11:51:10.766Z,27.17
2018-05-13T11:52:10.728Z,27.10
2018-05-13T11:53:10.700Z,27.27
2018-05-13T11:54:10.706Z,27.52
2018-05-13T11:55:10.627Z,27.48
2018-05-13T11:56:10.587Z,27.11
2018-05-13T11:57:10.547Z,26.81
2018-05-13T11:58:10.513Z,26.48
2018-05-13T11:59:10.511Z,26.21
2018-05-13T12:00:10.469Z,25.93
2018-05-13T12:01:10.398Z,26.22
2018-05-13T12:02:10.405Z,26.52
2018-05-13T12:03:10.325Z,26.53
2018-05-13T12:04:10.291Z,26.65
2018-05-13T12:05:10.290Z,26.51
2018-05-13T12:06:10.215Z,26.71
2018-05-13T12:07:10.178Z,26.78
2018-05-13T12:08:10.140Z,26.62
2018-05-13T12:09:10.109Z,26.45
2018-05-13T12:10:10.100Z,26.10
2018-05-13T12:11:10.074Z,25.62
2018-05-13T12:12:10.015Z,25.85
2018-05-13T12:13:10.017Z,25.96
2018-05-13T12:14:09.919Z,26.19
2018-05-13T12:15:09.950Z,26.59
2018-05-13T12:16:09.889Z,26.80
2018-05-13T12:17:09.842Z,27.07
2018-05-13T12:18:09.774Z,27.05
2018-05-13T12:19:09.743Z,27.39
2018-05-13T12:20:09.694Z,27.87
2018-05-13T12:21:09.813Z,28.26
2018-05-13T12:22:09.657Z,28.37
2018-05-13T12:23:09.590Z,28.42
2018-05-13T12:24:09.546Z,28.17
2018-05-13T12:25:09.510Z,27.63
2018-05-13T12:26:09.517Z,27.03
2018-05-13T12:27:09.439Z,27.08
2018-05-13T12:28:09.399Z,27.54
2018-05-13T12:29:09.366Z,28.05
2018-05-13T12:30:09.331Z,28.33
2018-05-13T12:31:09.329Z,28.56
2018-05-13T12:32:09.253Z,28.00
2018-05-13T12:33:09.253Z,28.15
2018-05-13T12:34:09.181Z,28.00
2018-05-13T12:35:09.147Z,27.92
2018-05-13T12:36:09.148Z,28.14
2018-05-13T12:37:09.071Z,27.95
2018-05-13T12:38:09.046Z,27.35
2018-05-13T12:39:08.999Z,27.00
2018-05-13T12:40:08.962Z,26.65
2018-05-13T12:41:08.982Z,26.19
2018-05-13T12:42:08.892Z,25.93
2018-05-13T12:43:08.860Z,25.80
2018-05-13T12:44:08.816Z,25.60
2018-05-13T12:45:08.782Z,25.31
2018-05-13T12:46:08.787Z,25.25
2018-05-13T12:47:08.709Z,25.22
2018-05-13T12:48:08.666Z,25.28
2018-05-13T12:49:08.632Z,25.36
2018-05-13T12:50:08.697Z,25.25
2018-05-13T12:51:08.590Z,25.41
2018-05-13T12:52:08.521Z,25.55